Time;durP1;ratioP1;P1;durP2;ratioP2;P2;SDS_P1;SDS_P2;PMS_P1;PMS_P2;Temp;Humidity;BMP_temperature;BMP_pressure;BME280_temperature;BME280_humidity;BME280_pressure;Samples;Min_cycle;Max_cycle;Signal;HPM_P1;HPM_P2
2022/04/14 00:01:38;;;;;;;;;;;;;;;;;;4992572;28;19925;-76
2022/04/14 00:04:04;;;;;;;;;;;;;;;;;;4991529;28;20309;-76
2022/04/14 00:06:30;;;;;;;;;;;;;;;;;;4992723;28;19932;-76
2022/04/14 00:08:56;;;;;;;;;;;;;;;;;;4992081;28;19926;-76
2022/04/14 00:11:23;;;;;;;;;;;;;;;;;;4992373;28;19949;-76
2022/04/14 00:13:49;;;;;;;;;;;;;;;;;;4992924;28;19930;-77
2022/04/14 00:16:15;;;;;;;;;;;;;;;;;;4997928;28;19929;-78
2022/04/14 00:18:41;;;;;;;;;;;;;;;;;;5005554;28;19926;-77
2022/04/14 00:21:07;;;;;;;;;;;;;;;;;;4992472;28;20416;-76
2022/04/14 00:23:33;;;;;;;;;;;;;;;;;;4992200;28;19926;-76
2022/04/14 00:26:00;;;;;;;;;;;;;;;;;;4992959;28;19925;-75
2022/04/14 00:28:26;;;;;;;;;;;;;;;;;;4992632;28;19936;-75
2022/04/14 00:30:52;;;;;;;;;;;;;;;;;;4992255;28;20377;-75
2022/04/14 00:33:18;;;;;;;;;;;;;;;;;;4992207;28;19932;-75
2022/04/14 00:35:44;;;;;;;;;;;;;;;;;;4993752;28;19933;-75
2022/04/14 00:38:10;;;;;;;;;;;;;;;;;;4992570;28;20401;-75
2022/04/14 00:40:37;;;;;;;;;;;;;;;;;;4994057;28;19932;-75
2022/04/14 00:43:03;;;;;;;;;;;;;;;;;;5000552;28;19925;-75
2022/04/14 00:45:29;;;;;;;;;;;;;;;;;;4999640;28;19926;-76
2022/04/14 00:47:55;;;;;;;;;;;;;;;;;;4997278;28;19930;-78
2022/04/14 00:50:21;;;;;;;;;;;;;;;;;;5000322;28;19926;-78
2022/04/14 00:52:47;;;;;;;;;;;;;;;;;;5000261;28;20418;-76
2022/04/14 00:55:14;;;;;;;;;;;;;;;;;;5004400;28;20289;-77
2022/04/14 00:57:40;;;;;;;;;;;;;;;;;;5016633;28;19932;-77
2022/04/14 01:00:06;;;;;;;;;;;;;;;;;;5002734;28;19926;-75
2022/04/14 01:02:33;;;;;;;;;;;;;;;;;;4995622;28;19961;-77
2022/04/14 01:04:59;;;;;;;;;;;;;;;;;;4995357;28;19925;-77
2022/04/14 01:07:25;;;;;;;;;;;;;;;;;;4995807;28;19926;-76
2022/04/14 01:09:51;;;;;;;;;;;;;;;;;;4995314;28;20411;-76
2022/04/14 01:12:17;;;;;;;;;;;;;;;;;;4995940;28;19949;-76
2022/04/14 01:14:43;;;;;;;;;;;;;;;;;;4995072;28;19926;-76
2022/04/14 01:17:09;;;;;;;;;;;;;;;;;;4995077;28;19929;-76
2022/04/14 01:19:36;;;;;;;;;;;;;;;;;;4995370;28;20322;-76
2022/04/14 01:22:02;;;;;;;;;;;;;;;;;;4995557;28;19932;-75
2022/04/14 01:24:28;;;;;;;;;;;;;;;;;;4994495;28;19932;-77
2022/04/14 01:26:54;;;;;;;;;;;;;;;;;;4995024;28;19933;-77
2022/04/14 01:29:21;;;;;;;;;;;;;;;;;;4994828;28;19972;-76
2022/04/14 01:31:47;;;;;;;;;;;;;;;;;;5000115;28;20452;-75
2022/04/14 01:34:14;;;;;;;;;;;;;;;;;;5009378;28;19929;-78
2022/04/14 01:36:40;;;;;;;;;;;;;;;;;;5000262;28;19965;-78
2022/04/14 01:39:08;;;;;;;;;;;;;;;;;;4999391;28;19930;-80
2022/04/14 01:41:34;;;;;;;;;;;;;;;;;;4999763;28;20016;-78
2022/04/14 01:44:00;;;;;;;;;;;;;;;;;;4996324;28;19926;-75
2022/04/14 01:46:26;;;;;;;;;;;;;;;;;;4995018;28;19936;-75
2022/04/14 01:48:52;;;;;;;;;;;;;;;;;;4994187;28;19930;-76
2022/04/14 01:51:19;;;;;;;;;;;;;;;;;;4994468;28;20274;-75
2022/04/14 01:53:45;;;;;;;;;;;;;;;;;;4994791;28;19941;-76
2022/04/14 01:56:12;;;;;;;;;;;;;;;;;;4994745;28;19926;-76
2022/04/14 01:58:38;;;;;;;;;;;;;;;;;;4995112;28;19972;-75
2022/04/14 02:01:04;;;;;;;;;;;;;;;;;;4998415;28;19936;-78
2022/04/14 02:03:31;;;;;;;;;;;;;;;;;;4998565;28;19926;-76
2022/04/14 02:05:57;;;;;;;;;;;;;;;;;;4994099;28;20020;-76
2022/04/14 02:08:23;;;;;;;;;;;;;;;;;;4994432;28;19926;-76
2022/04/14 02:10:49;;;;;;;;;;;;;;;;;;4994034;28;20563;-76
2022/04/14 02:13:15;;;;;;;;;;;;;;;;;;4994050;28;19925;-76
2022/04/14 02:15:41;;;;;;;;;;;;;;;;;;4994142;28;19925;-76
2022/04/14 02:18:08;;;;;;;;;;;;;;;;;;4994703;28;19926;-77
2022/04/14 02:20:34;;;;;;;;;;;;;;;;;;4994787;28;19926;-75
2022/04/14 02:23:00;;;;;;;;;;;;;;;;;;5001202;28;20279;-76
2022/04/14 02:25:26;;;;;;;;;;;;;;;;;;5001040;28;20024;-76
2022/04/14 02:27:52;;;;;;;;;;;;;;;;;;4994077;28;19932;-76
2022/04/14 02:30:18;;;;;;;;;;;;;;;;;;4993918;28;20301;-75
2022/04/14 02:32:44;;;;;;;;;;;;;;;;;;4993267;28;19978;-77
2022/04/14 02:35:11;;;;;;;;;;;;;;;;;;4994111;28;19933;-77
2022/04/14 02:37:37;;;;;;;;;;;;;;;;;;4993975;28;19926;-77
2022/04/14 02:40:03;;;;;;;;;;;;;;;;;;4993630;28;19926;-77
2022/04/14 02:42:29;;;;;;;;;;;;;;;;;;4993231;28;20278;-77
2022/04/14 02:44:55;;;;;;;;;;;;;;;;;;4993572;28;19925;-77
2022/04/14 02:47:21;;;;;;;;;;;;;;;;;;4993264;28;19936;-77
2022/04/14 02:49:48;;;;;;;;;;;;;;;;;;4997710;28;19930;-78
2022/04/14 02:52:14;;;;;;;;;;;;;;;;;;4998681;28;20220;-78
2022/04/14 02:54:40;;;;;;;;;;;;;;;;;;4993134;28;19961;-76
2022/04/14 02:57:06;;;;;;;;;;;;;;;;;;4993958;28;19925;-76
2022/04/14 02:59:32;;;;;;;;;;;;;;;;;;5003544;28;20397;-77
2022/04/14 03:01:59;;;;;;;;;;;;;;;;;;5013282;28;20016;-77
2022/04/14 03:04:25;;;;;;;;;;;;;;;;;;4996968;28;19933;-77
2022/04/14 03:06:52;;;;;;;;;;;;;;;;;;4993898;28;19926;-75
2022/04/14 03:09:18;;;;;;;;;;;;;;;;;;4993018;28;19936;-75
2022/04/14 03:11:44;;;;;;;;;;;;;;;;;;4993074;28;19933;-75
2022/04/14 03:14:10;;;;;;;;;;;;;;;;;;4992547;28;19930;-75
2022/04/14 03:16:36;;;;;;;;;;;;;;;;;;5009951;28;19925;-74
2022/04/14 03:19:02;;;;;;;;;;;;;;;;;;5002384;28;19932;-74
2022/04/14 03:21:29;;;;;;;;;;;;;;;;;;4977991;28;20309;-74
2022/04/14 03:23:55;;;;;;;;;;;;;;;;;;4981580;28;19926;-74
2022/04/14 03:26:21;;;;;;;;;;;;;;;;;;4993530;28;19934;-76
2022/04/14 03:28:47;;;;;;;;;;;;;;;;;;4992693;28;19932;-75
2022/04/14 03:31:13;;;;;;;;;;;;;;;;;;4992542;28;20293;-74
2022/04/14 03:33:39;;;;;;;;;;;;;;;;;;4992597;28;19926;-75
2022/04/14 03:36:06;;;;;;;;;;;;;;;;;;4993324;28;19926;-75
2022/04/14 03:38:32;;;;;;;;;;;;;;;;;;4993209;28;19955;-76
2022/04/14 03:40:59;;;;;;;;;;;;;;;;;;4987925;28;19930;-77
2022/04/14 03:43:25;;;;;;;;;;;;;;;;;;4974004;28;20460;-75
2022/04/14 03:45:51;;;;;;;;;;;;;;;;;;4993150;28;20032;-74
2022/04/14 03:48:17;;;;;;;;;;;;;;;;;;4993772;28;19930;-75
2022/04/14 03:50:44;;;;;;;;;;;;;;;;;;4992397;28;20377;-75
2022/04/14 03:53:10;;;;;;;;;;;;;;;;;;4992134;28;19926;-75
2022/04/14 03:55:39;;;;;;;;;;;;;;;;;;4993395;28;19925;-74
2022/04/14 03:58:05;;;;;;;;;;;;;;;;;;4992622;28;19936;-75
2022/04/14 04:00:32;;;;;;;;;;;;;;;;;;4993412;28;20306;-74
2022/04/14 04:02:58;;;;;;;;;;;;;;;;;;4992275;28;19965;-75
2022/04/14 04:05:24;;;;;;;;;;;;;;;;;;4992759;28;19925;-75
2022/04/14 04:07:50;;;;;;;;;;;;;;;;;;4992539;28;19926;-80
2022/04/14 04:10:17;;;;;;;;;;;;;;;;;;4993095;28;20300;-75
2022/04/14 04:12:43;;;;;;;;;;;;;;;;;;4992043;28;19933;-75
2022/04/14 04:15:11;;;;;;;;;;;;;;;;;;4993802;28;19932;-75
2022/04/14 04:17:38;;;;;;;;;;;;;;;;;;4996208;28;19953;-75
2022/04/14 04:20:05;;;;;;;;;;;;;;;;;;4996174;28;19932;-75
2022/04/14 04:22:33;;;;;;;;;;;;;;;;;;4995908;28;20763;-77
2022/04/14 04:24:59;;;;;;;;;;;;;;;;;;4995919;28;19934;-74
2022/04/14 04:27:25;;;;;;;;;;;;;;;;;;4995911;28;19926;-74
2022/04/14 04:29:51;;;;;;;;;;;;;;;;;;4996335;28;20412;-77
2022/04/14 04:32:18;;;;;;;;;;;;;;;;;;4996910;28;19926;-74
2022/04/14 04:34:44;;;;;;;;;;;;;;;;;;4995499;28;19925;-74
2022/04/14 04:37:10;;;;;;;;;;;;;;;;;;4996846;28;20393;-74
2022/04/14 04:39:36;;;;;;;;;;;;;;;;;;4996066;28;19925;-73
2022/04/14 04:42:02;;;;;;;;;;;;;;;;;;4996031;28;19926;-74
2022/04/14 04:44:29;;;;;;;;;;;;;;;;;;4995753;28;19929;-75
2022/04/14 04:46:55;;;;;;;;;;;;;;;;;;4995780;28;19932;-75
2022/04/14 04:49:21;;;;;;;;;;;;;;;;;;4995619;28;19926;-75
2022/04/14 04:51:47;;;;;;;;;;;;;;;;;;4998801;23;19926;-78
2022/04/14 04:54:13;;;;;;;;;;;;;;;;;;4987590;28;19934;-78
2022/04/14 04:56:39;;;;;;;;;;;;;;;;;;4982326;28;19965;-78
2022/04/14 04:59:06;;;;;;;;;;;;;;;;;;4986454;28;19925;-78
2022/04/14 05:01:32;;;;;;;;;;;;;;;;;;4979799;28;19926;-78
2022/04/14 05:03:59;;;;;;;;;;;;;;;;;;4986618;28;19926;-80
2022/04/14 05:09:12;;;;;;;;;;;;;;;;;;4992244;28;19922;-80
2022/04/14 05:22:54;;;;;;;;;;;;;;;;;;4993500;28;19934;-79
2022/04/14 05:25:22;;;;;;;;;;;;;;;;;;4998574;28;19926;-77
2022/04/14 05:44:03;;;;;;;;;;;;;;;;;;4975477;28;19926;-78
2022/04/14 05:46:29;;;;;;;;;;;;;;;;;;4975562;28;19926;-78
2022/04/14 05:48:55;;;;;;;;;;;;;;;;;;4975736;28;20312;-77
2022/04/14 05:51:22;;;;;;;;;;;;;;;;;;4976322;28;20373;-77
2022/04/14 05:53:50;;;;;;;;;;;;;;;;;;4977454;28;19930;-78
2022/04/14 05:56:16;;;;;;;;;;;;;;;;;;4975070;28;19935;-78
2022/04/14 05:58:43;;;;;;;;;;;;;;;;;;4976064;28;20031;-77
2022/04/14 06:01:09;;;;;;;;;;;;;;;;;;4976632;28;19926;-77
2022/04/14 06:03:35;;;;;;;;;;;;;;;;;;4970561;28;19933;-77
2022/04/14 06:06:01;;;;;;;;;;;;;;;;;;4957604;28;19938;-77
2022/04/14 06:08:29;;;;;;;;;;;;;;;;;;4975186;28;19926;-81
2022/04/14 06:10:55;;;;;;;;;;;;;;;;;;4973498;28;20026;-77
2022/04/14 06:13:21;;;;;;;;;;;;;;;;;;4982462;28;19932;-79
2022/04/14 06:15:47;;;;;;;;;;;;;;;;;;4956546;29;19933;-79
2022/04/14 06:18:13;;;;;;;;;;;;;;;;;;4966611;28;20294;-77
2022/04/14 06:20:40;;;;;;;;;;;;;;;;;;4968656;28;19930;-77
2022/04/14 06:23:06;;;;;;;;;;;;;;;;;;4975807;28;19926;-77
2022/04/14 06:25:32;;;;;;;;;;;;;;;;;;4972320;28;20278;-77
2022/04/14 06:27:58;;;;;;;;;;;;;;;;;;4975096;28;19934;-77
2022/04/14 06:30:25;;;;;;;;;;;;;;;;;;4974055;28;19926;-77
2022/04/14 06:32:51;;;;;;;;;;;;;;;;;;4975782;28;19926;-77
2022/04/14 06:35:17;;;;;;;;;;;;;;;;;;4975648;28;19926;-77
2022/04/14 06:37:43;;;;;;;;;;;;;;;;;;4975465;28;19933;-76
2022/04/14 06:40:09;;;;;;;;;;;;;;;;;;4974256;28;19926;-77
2022/04/14 06:42:35;;;;;;;;;;;;;;;;;;4975196;28;19933;-76
2022/04/14 06:45:02;;;;;;;;;;;;;;;;;;4974125;28;19934;-77
2022/04/14 06:47:28;;;;;;;;;;;;;;;;;;4975597;28;19938;-76
2022/04/14 06:49:54;;;;;;;;;;;;;;;;;;4973141;28;20305;-76
2022/04/14 06:52:20;;;;;;;;;;;;;;;;;;4974933;28;19936;-77
2022/04/14 06:54:46;;;;;;;;;;;;;;;;;;4973601;28;20477;-77
2022/04/14 06:57:12;;;;;;;;;;;;;;;;;;4975108;28;19926;-76
2022/04/14 06:59:38;;;;;;;;;;;;;;;;;;4975052;28;19933;-77
2022/04/14 07:02:05;;;;;;;;;;;;;;;;;;4966604;28;19930;-77
2022/04/14 07:04:31;;;;;;;;;;;;;;;;;;4974885;28;20040;-76
2022/04/14 07:06:57;;;;;;;;;;;;;;;;;;4975038;28;19926;-77
2022/04/14 07:09:24;;;;;;;;;;;;;;;;;;4974494;28;19926;-77
2022/04/14 07:11:50;;;;;;;;;;;;;;;;;;4975630;28;20020;-77
2022/04/14 07:14:17;;;;;;;;;;;;;;;;;;4973829;28;19933;-77
2022/04/14 07:16:43;;;;;;;;;;;;;;;;;;4968124;28;19934;-76
2022/04/14 07:19:09;;;;;;;;;;;;;;;;;;4961688;28;19927;-77
2022/04/14 07:21:36;;;;;;;;;;;;;;;;;;4965027;28;20397;-77
2022/04/14 07:24:02;;;;;;;;;;;;;;;;;;4974994;28;19926;-76
2022/04/14 07:26:28;;;;;;;;;;;;;;;;;;4973199;28;19926;-77
2022/04/14 07:28:54;;;;;;;;;;;;;;;;;;4975214;28;19926;-77
2022/04/14 07:31:20;;;;;;;;;;;;;;;;;;4972574;28;19934;-77
2022/04/14 07:33:47;;;;;;;;;;;;;;;;;;4974340;28;19933;-76
2022/04/14 07:36:18;;;;;;;;;;;;;;;;;;4973786;28;19933;-76
2022/04/14 07:38:44;;;;;;;;;;;;;;;;;;4975019;28;20012;-76
2022/04/14 07:41:10;;;;;;;;;;;;;;;;;;4973181;28;19937;-76
2022/04/14 07:43:36;;;;;;;;;;;;;;;;;;4974551;28;20301;-77
2022/04/14 07:46:03;;;;;;;;;;;;;;;;;;4971884;28;19933;-76
2022/04/14 07:48:30;;;;;;;;;;;;;;;;;;4972797;28;19937;-77
2022/04/14 07:50:56;;;;;;;;;;;;;;;;;;4972465;28;20029;-76
2022/04/14 07:53:22;;;;;;;;;;;;;;;;;;4973369;28;20274;-77
2022/04/14 07:55:48;;;;;;;;;;;;;;;;;;4972625;28;19926;-77
2022/04/14 07:58:14;;;;;;;;;;;;;;;;;;4975355;28;19926;-77
2022/04/14 08:00:41;;;;;;;;;;;;;;;;;;4973664;28;19972;-77
2022/04/14 08:03:07;;;;;;;;;;;;;;;;;;4973969;28;19926;-77
2022/04/14 08:05:33;;;;;;;;;;;;;;;;;;4971349;28;19930;-77
2022/04/14 08:07:59;;;;;;;;;;;;;;;;;;4974791;28;19926;-76
2022/04/14 08:10:26;;;;;;;;;;;;;;;;;;4973410;28;19927;-77
2022/04/14 08:12:53;;;;;;;;;;;;;;;;;;4973876;28;19933;-76
2022/04/14 08:15:19;;;;;;;;;;;;;;;;;;4972873;28;19985;-76
2022/04/14 08:17:45;;;;;;;;;;;;;;;;;;4972580;28;20305;-77
2022/04/14 08:20:11;;;;;;;;;;;;;;;;;;4972135;28;19926;-76
2022/04/14 08:22:37;;;;;;;;;;;;;;;;;;4955107;29;19933;-76
2022/04/14 08:25:03;;;;;;;;;;;;;;;;;;4964371;28;19926;-77
2022/04/14 08:27:30;;;;;;;;;;;;;;;;;;4974346;28;19932;-77
2022/04/14 08:29:56;;;;;;;;;;;;;;;;;;4971542;28;19926;-77
2022/04/14 08:32:22;;;;;;;;;;;;;;;;;;4973708;28;19926;-77
2022/04/14 08:34:48;;;;;;;;;;;;;;;;;;4972524;28;20293;-76
2022/04/14 08:37:14;;;;;;;;;;;;;;;;;;4955553;29;20013;-77
2022/04/14 08:39:41;;;;;;;;;;;;;;;;;;4959902;28;20017;-77
2022/04/14 08:42:07;;;;;;;;;;;;;;;;;;4973977;28;19937;-77
2022/04/14 08:44:34;;;;;;;;;;;;;;;;;;4973894;28;20024;-77
2022/04/14 08:47:00;;;;;;;;;;;;;;;;;;4972785;28;19926;-77
2022/04/14 08:49:27;;;;;;;;;;;;;;;;;;4973547;28;19934;-76
2022/04/14 08:51:53;;;;;;;;;;;;;;;;;;4972365;28;20364;-77
2022/04/14 08:54:19;;;;;;;;;;;;;;;;;;4956993;28;19937;-77
2022/04/14 08:56:46;;;;;;;;;;;;;;;;;;4974435;28;19926;-77
2022/04/14 08:59:13;;;;;;;;;;;;;;;;;;4974204;28;20016;-77
2022/04/14 09:01:39;;;;;;;;;;;;;;;;;;4975496;28;20034;-77
2022/04/14 09:04:05;;;;;;;;;;;;;;;;;;4977408;28;19933;-77
2022/04/14 09:06:32;;;;;;;;;;;;;;;;;;4977015;28;19930;-77
2022/04/14 09:08:58;;;;;;;;;;;;;;;;;;4975694;28;19929;-76
2022/04/14 09:11:25;;;;;;;;;;;;;;;;;;4977203;28;19930;-76
2022/04/14 09:13:51;;;;;;;;;;;;;;;;;;4977007;28;19936;-77
2022/04/14 09:16:17;;;;;;;;;;;;;;;;;;4974911;28;19926;-77
2022/04/14 09:18:45;;;;;;;;;;;;;;;;;;4976709;28;19965;-77
2022/04/14 09:21:12;;;;;;;;;;;;;;;;;;4976639;28;19930;-76
2022/04/14 09:23:38;;;;;;;;;;;;;;;;;;4977150;28;20032;-76
2022/04/14 09:26:06;;;;;;;;;;;;;;;;;;4977056;28;19933;-77
2022/04/14 09:28:32;;;;;;;;;;;;;;;;;;4977720;28;19977;-77
2022/04/14 09:30:58;;;;;;;;;;;;;;;;;;4976518;28;19933;-77
2022/04/14 09:33:24;;;;;;;;;;;;;;;;;;4975735;28;20396;-77
2022/04/14 09:35:51;;;;;;;;;;;;;;;;;;4976205;28;19948;-77
2022/04/14 09:38:17;;;;;;;;;;;;;;;;;;4958925;28;19926;-77
2022/04/14 09:40:47;;;;;;;;;;;;;;;;;;4969002;28;19926;-76
2022/04/14 09:43:13;;;;;;;;;;;;;;;;;;4976741;28;19926;-77
2022/04/14 09:45:39;;;;;;;;;;;;;;;;;;4974497;28;20402;-76
2022/04/14 09:48:05;;;;;;;;;;;;;;;;;;4973441;28;19926;-77
2022/04/14 09:50:32;;;;;;;;;;;;;;;;;;4975522;28;19930;-76
2022/04/14 09:52:58;;;;;;;;;;;;;;;;;;4976197;28;19926;-77
2022/04/14 09:55:24;;;;;;;;;;;;;;;;;;4975133;28;20291;-77
2022/04/14 09:57:50;;;;;;;;;;;;;;;;;;4975425;28;19933;-77
2022/04/14 10:00:17;;;;;;;;;;;;;;;;;;4977086;28;20407;-77
2022/04/14 10:02:43;;;;;;;;;;;;;;;;;;4976460;28;19925;-76
2022/04/14 10:05:09;;;;;;;;;;;;;;;;;;4990050;28;19926;-81
2022/04/14 10:07:35;;;;;;;;;;;;;;;;;;4989099;28;19926;-82
2022/04/14 10:10:02;;;;;;;;;;;;;;;;;;4983475;28;19961;-82
2022/04/14 10:12:29;;;;;;;;;;;;;;;;;;4997528;28;19926;-82
2022/04/14 10:14:55;;;;;;;;;;;;;;;;;;4983965;28;19933;-81
2022/04/14 10:17:22;;;;;;;;;;;;;;;;;;4983634;28;20381;-80
2022/04/14 10:19:50;;;;;;;;;;;;;;;;;;4971260;28;19932;-80
2022/04/14 10:22:16;;;;;;;;;;;;;;;;;;4971709;28;19926;-80
2022/04/14 10:24:45;;;;;;;;;;;;;;;;;;4976434;28;20338;-81
2022/04/14 10:27:11;;;;;;;;;;;;;;;;;;4976638;28;19930;-80
2022/04/14 10:29:38;;;;;;;;;;;;;;;;;;4976356;28;20289;-80
2022/04/14 10:32:05;;;;;;;;;;;;;;;;;;4976394;28;19930;-81
2022/04/14 10:34:32;;;;;;;;;;;;;;;;;;4977343;28;19953;-81
2022/04/14 10:36:58;;;;;;;;;;;;;;;;;;4976550;28;19981;-81
2022/04/14 10:39:24;;;;;;;;;;;;;;;;;;4976094;28;19926;-80
2022/04/14 10:41:50;;;;;;;;;;;;;;;;;;4969604;28;19964;-81
2022/04/14 10:44:17;;;;;;;;;;;;;;;;;;4974172;28;20389;-82
2022/04/14 10:46:47;;;;;;;;;;;;;;;;;;4976779;28;20029;-81
2022/04/14 10:49:13;;;;;;;;;;;;;;;;;;4976542;28;20008;-81
2022/04/14 10:51:39;;;;;;;;;;;;;;;;;;4976034;28;19926;-81
2022/04/14 10:54:05;;;;;;;;;;;;;;;;;;4976089;28;19970;-81
2022/04/14 10:56:32;;;;;;;;;;;;;;;;;;4968185;28;19927;-81
2022/04/14 10:59:04;;;;;;;;;;;;;;;;;;4977785;28;20290;-81
2022/04/14 11:01:30;;;;;;;;;;;;;;;;;;4970533;28;19932;-81
2022/04/14 11:03:57;;;;;;;;;;;;;;;;;;4979339;28;20293;-80
2022/04/14 11:06:23;;;;;;;;;;;;;;;;;;4976440;28;19930;-81
2022/04/14 11:08:51;;;;;;;;;;;;;;;;;;4976180;28;20025;-81
2022/04/14 11:11:17;;;;;;;;;;;;;;;;;;4986053;28;20358;-82
2022/04/14 11:13:44;;;;;;;;;;;;;;;;;;4986446;28;19926;-81
2022/04/14 11:16:10;;;;;;;;;;;;;;;;;;4976938;28;19926;-81
2022/04/14 11:18:36;;;;;;;;;;;;;;;;;;4971306;28;20017;-81
2022/04/14 11:21:02;;;;;;;;;;;;;;;;;;4957948;29;19926;-80
2022/04/14 11:23:29;;;;;;;;;;;;;;;;;;4973303;28;19976;-81
2022/04/14 11:25:55;;;;;;;;;;;;;;;;;;4975480;28;19953;-81
2022/04/14 11:28:31;;;;;;;;;;;;;;;;;;4973581;28;19926;-81
2022/04/14 11:30:57;;;;;;;;;;;;;;;;;;4975608;28;19926;-81
2022/04/14 11:33:25;;;;;;;;;;;;;;;;;;4975440;28;19930;-81
2022/04/14 11:35:51;;;;;;;;;;;;;;;;;;4975383;28;19930;-81
2022/04/14 11:38:17;;;;;;;;;;;;;;;;;;4967054;28;19933;-77
2022/04/14 11:40:43;;;;;;;;;;;;;;;;;;4954786;29;19938;-77
2022/04/14 11:43:10;;;;;;;;;;;;;;;;;;4962624;28;19930;-77
2022/04/14 11:45:37;;;;;;;;;;;;;;;;;;4973943;28;19926;-77
2022/04/14 11:48:04;;;;;;;;;;;;;;;;;;4973599;28;19936;-77
2022/04/14 11:50:32;;;;;;;;;;;;;;;;;;4973392;28;19933;-77
2022/04/14 11:52:58;;;;;;;;;;;;;;;;;;4954401;28;20342;-76
2022/04/14 11:55:24;;;;;;;;;;;;;;;;;;4973996;28;20183;-77
2022/04/14 11:57:52;;;;;;;;;;;;;;;;;;4972972;28;19933;-77
2022/04/14 12:00:19;;;;;;;;;;;;;;;;;;4971844;28;20109;-77
2022/04/14 12:02:45;;;;;;;;;;;;;;;;;;4972200;28;19926;-77
2022/04/14 12:05:12;;;;;;;;;;;;;;;;;;4972577;28;19926;-75
2022/04/14 12:07:38;;;;;;;;;;;;;;;;;;4971971;28;19948;-76
2022/04/14 12:10:04;;;;;;;;;;;;;;;;;;4971608;28;19930;-75
2022/04/14 12:12:30;;;;;;;;;;;;;;;;;;4966654;28;19930;-75
2022/04/14 12:14:57;;;;;;;;;;;;;;;;;;4962776;28;19932;-75
2022/04/14 12:17:23;;;;;;;;;;;;;;;;;;4963077;28;19937;-75
2022/04/14 12:19:50;;;;;;;;;;;;;;;;;;4972620;28;19936;-75
2022/04/14 12:22:16;;;;;;;;;;;;;;;;;;4973149;28;19926;-75
2022/04/14 12:24:42;;;;;;;;;;;;;;;;;;4971815;28;19926;-76
2022/04/14 12:27:08;;;;;;;;;;;;;;;;;;4971584;28;20029;-75
2022/04/14 12:29:34;;;;;;;;;;;;;;;;;;4972829;28;20016;-77
2022/04/14 12:32:01;;;;;;;;;;;;;;;;;;4973257;28;20283;-75
2022/04/14 12:34:28;;;;;;;;;;;;;;;;;;4971761;28;19940;-76
2022/04/14 12:36:54;;;;;;;;;;;;;;;;;;4959861;28;19927;-76
2022/04/14 12:39:20;;;;;;;;;;;;;;;;;;4960134;28;19977;-75
2022/04/14 12:41:46;;;;;;;;;;;;;;;;;;4976502;28;20405;-76
2022/04/14 12:44:13;;;;;;;;;;;;;;;;;;4976061;28;19926;-75
2022/04/14 12:46:39;;;;;;;;;;;;;;;;;;4968324;28;19977;-76
2022/04/14 12:49:06;;;;;;;;;;;;;;;;;;4957848;28;19949;-76
2022/04/14 12:51:32;;;;;;;;;;;;;;;;;;4975399;28;20009;-76
2022/04/14 12:53:59;;;;;;;;;;;;;;;;;;4976316;28;19930;-77
2022/04/14 12:56:26;;;;;;;;;;;;;;;;;;4976538;28;19930;-76
2022/04/14 12:58:52;;;;;;;;;;;;;;;;;;4976669;28;20353;-76
2022/04/14 13:01:18;;;;;;;;;;;;;;;;;;4973180;28;20121;-76
2022/04/14 13:03:44;;;;;;;;;;;;;;;;;;4973990;28;19930;-76
2022/04/14 13:06:10;;;;;;;;;;;;;;;;;;4976082;28;19926;-75
2022/04/14 13:08:37;;;;;;;;;;;;;;;;;;4975407;28;19926;-75
2022/04/14 13:11:04;;;;;;;;;;;;;;;;;;4975372;28;19934;-75
2022/04/14 13:13:30;;;;;;;;;;;;;;;;;;4975188;28;19926;-75
2022/04/14 13:15:56;;;;;;;;;;;;;;;;;;4972224;28;19933;-75
2022/04/14 13:18:22;;;;;;;;;;;;;;;;;;4976579;28;19926;-75
2022/04/14 13:20:48;;;;;;;;;;;;;;;;;;4976127;28;19956;-75
2022/04/14 13:23:18;;;;;;;;;;;;;;;;;;4975036;28;20397;-74
2022/04/14 13:25:45;;;;;;;;;;;;;;;;;;4976184;28;19934;-75
2022/04/14 13:28:11;;;;;;;;;;;;;;;;;;4971435;28;19927;-75
2022/04/14 13:30:37;;;;;;;;;;;;;;;;;;4956429;28;20309;-75
2022/04/14 13:33:04;;;;;;;;;;;;;;;;;;4956147;29;19926;-75
2022/04/14 13:35:30;;;;;;;;;;;;;;;;;;4956841;28;19986;-75
2022/04/14 13:37:56;;;;;;;;;;;;;;;;;;4956464;29;19926;-75
2022/04/14 13:40:22;;;;;;;;;;;;;;;;;;4956623;29;19926;-75
2022/04/14 13:42:49;;;;;;;;;;;;;;;;;;4955611;29;20390;-75
2022/04/14 13:45:15;;;;;;;;;;;;;;;;;;4956618;29;20298;-76
2022/04/14 13:47:41;;;;;;;;;;;;;;;;;;4956386;28;19933;-75
2022/04/14 13:50:08;;;;;;;;;;;;;;;;;;4956067;28;20013;-75
2022/04/14 13:52:34;;;;;;;;;;;;;;;;;;4955454;28;19930;-75
2022/04/14 13:55:00;;;;;;;;;;;;;;;;;;4956012;29;20400;-75
2022/04/14 13:57:26;;;;;;;;;;;;;;;;;;4956361;29;19948;-75
2022/04/14 13:59:52;;;;;;;;;;;;;;;;;;4956291;29;19932;-75
2022/04/14 14:02:18;;;;;;;;;;;;;;;;;;4956248;28;19934;-75
2022/04/14 14:04:44;;;;;;;;;;;;;;;;;;4955778;29;20270;-75
2022/04/14 14:07:11;;;;;;;;;;;;;;;;;;4955691;28;19926;-75
2022/04/14 14:09:38;;;;;;;;;;;;;;;;;;4956425;29;19926;-75
2022/04/14 14:12:04;;;;;;;;;;;;;;;;;;4968788;28;19930;-75
2022/04/14 14:14:30;;;;;;;;;;;;;;;;;;4960912;28;19933;-75
2022/04/14 14:16:56;;;;;;;;;;;;;;;;;;4956100;29;19934;-75
2022/04/14 14:19:22;;;;;;;;;;;;;;;;;;4964772;28;19933;-75
2022/04/14 14:21:49;;;;;;;;;;;;;;;;;;4974952;28;20300;-75
2022/04/14 14:24:15;;;;;;;;;;;;;;;;;;4973883;28;20303;-75
2022/04/14 14:26:41;;;;;;;;;;;;;;;;;;4975417;28;19926;-75
2022/04/14 14:29:07;;;;;;;;;;;;;;;;;;4974675;28;19932;-75
2022/04/14 14:31:33;;;;;;;;;;;;;;;;;;4972887;28;19926;-75
2022/04/14 14:33:59;;;;;;;;;;;;;;;;;;4972604;28;20282;-75
2022/04/14 14:36:26;;;;;;;;;;;;;;;;;;4973861;28;19932;-75
2022/04/14 14:38:52;;;;;;;;;;;;;;;;;;4974150;28;19926;-75
2022/04/14 14:41:19;;;;;;;;;;;;;;;;;;4974678;28;20270;-75
2022/04/14 14:43:45;;;;;;;;;;;;;;;;;;4972816;28;19937;-75
2022/04/14 14:46:11;;;;;;;;;;;;;;;;;;4974398;28;19933;-75
2022/04/14 14:48:38;;;;;;;;;;;;;;;;;;4967886;28;19932;-76
2022/04/14 14:51:04;;;;;;;;;;;;;;;;;;4971986;28;19934;-77
2022/04/14 14:53:31;;;;;;;;;;;;;;;;;;4973601;28;19926;-75
2022/04/14 14:55:57;;;;;;;;;;;;;;;;;;4974126;28;20390;-75
2022/04/14 15:01:16;;;;;;;;;;;;;;;;;;4961529;28;19922;-77
2022/04/14 15:03:42;;;;;;;;;;;;;;;;;;4972558;28;19926;-75
2022/04/14 15:06:08;;;;;;;;;;;;;;;;;;4973478;28;20304;-75
2022/04/14 15:08:34;;;;;;;;;;;;;;;;;;4973496;28;19961;-75
2022/04/14 15:11:01;;;;;;;;;;;;;;;;;;4973874;28;19926;-75
2022/04/14 15:13:27;;;;;;;;;;;;;;;;;;4972928;28;19932;-75
2022/04/14 15:15:56;;;;;;;;;;;;;;;;;;4973450;28;20390;-75
2022/04/14 15:18:22;;;;;;;;;;;;;;;;;;4973835;28;19927;-75
2022/04/14 15:20:48;;;;;;;;;;;;;;;;;;4973382;28;19926;-75
2022/04/14 15:23:14;;;;;;;;;;;;;;;;;;4972332;28;20422;-75
2022/04/14 15:25:40;;;;;;;;;;;;;;;;;;4973834;28;20305;-75
2022/04/14 15:28:08;;;;;;;;;;;;;;;;;;4973674;28;19926;-75
2022/04/14 15:30:34;;;;;;;;;;;;;;;;;;4973448;28;20385;-75
2022/04/14 15:33:00;;;;;;;;;;;;;;;;;;4972461;28;20373;-75
2022/04/14 15:35:26;;;;;;;;;;;;;;;;;;4963147;28;19926;-75
2022/04/14 15:37:53;;;;;;;;;;;;;;;;;;4974049;28;19926;-75
2022/04/14 15:40:19;;;;;;;;;;;;;;;;;;4971211;28;19926;-75
2022/04/14 15:42:45;;;;;;;;;;;;;;;;;;4972194;28;20360;-75
2022/04/14 15:45:11;;;;;;;;;;;;;;;;;;4973830;28;19930;-75
2022/04/14 15:47:37;;;;;;;;;;;;;;;;;;4975014;28;19933;-75
2022/04/14 15:50:03;;;;;;;;;;;;;;;;;;4976598;28;19933;-75
2022/04/14 15:52:30;;;;;;;;;;;;;;;;;;4973286;28;19926;-75
2022/04/14 15:54:56;;;;;;;;;;;;;;;;;;4973799;28;19933;-75
2022/04/14 15:57:22;;;;;;;;;;;;;;;;;;4973005;28;20420;-76
2022/04/14 15:59:48;;;;;;;;;;;;;;;;;;4973646;28;19926;-75
2022/04/14 16:02:14;;;;;;;;;;;;;;;;;;4971886;28;20021;-75
2022/04/14 16:04:41;;;;;;;;;;;;;;;;;;4966468;28;19926;-75
2022/04/14 16:07:07;;;;;;;;;;;;;;;;;;4972501;28;20307;-76
2022/04/14 16:12:02;;;;;;;;;;;;;;;;;;4959932;28;19934;-76
2022/04/14 16:12:19;;;;;;;;;;;;;;;;;;4970556;28;19934;-76
2022/04/14 16:14:45;;;;;;;;;;;;;;;;;;4965076;28;20357;-76
2022/04/14 16:17:11;;;;;;;;;;;;;;;;;;4977382;28;19930;-76
2022/04/14 16:19:37;;;;;;;;;;;;;;;;;;4969764;28;19926;-76
2022/04/14 16:22:03;;;;;;;;;;;;;;;;;;4975549;28;19934;-76
2022/04/14 16:24:30;;;;;;;;;;;;;;;;;;4976651;28;19926;-77
2022/04/14 16:26:56;;;;;;;;;;;;;;;;;;4963421;28;20293;-77
2022/04/14 16:29:22;;;;;;;;;;;;;;;;;;4977280;28;19926;-77
2022/04/14 16:31:51;;;;;;;;;;;;;;;;;;4962322;28;19964;-80
2022/04/14 16:34:17;;;;;;;;;;;;;;;;;;4976028;28;19953;-77
2022/04/14 16:36:44;;;;;;;;;;;;;;;;;;4972980;28;19933;-77
2022/04/14 16:39:14;;;;;;;;;;;;;;;;;;4980227;28;20436;-77
2022/04/14 16:41:40;;;;;;;;;;;;;;;;;;4976333;28;20342;-77
2022/04/14 16:44:07;;;;;;;;;;;;;;;;;;4969934;28;19930;-76
2022/04/14 16:46:33;;;;;;;;;;;;;;;;;;4976313;28;20029;-77
2022/04/14 16:49:00;;;;;;;;;;;;;;;;;;4974970;28;20481;-77
2022/04/14 16:51:26;;;;;;;;;;;;;;;;;;4974478;28;20008;-77
2022/04/14 16:53:53;;;;;;;;;;;;;;;;;;4972727;28;19933;-77
2022/04/14 16:56:20;;;;;;;;;;;;;;;;;;4976154;28;19994;-77
2022/04/14 16:58:49;;;;;;;;;;;;;;;;;;4989071;28;19932;-77
2022/04/14 17:01:16;;;;;;;;;;;;;;;;;;4995716;28;19972;-76
2022/04/14 17:03:46;;;;;;;;;;;;;;;;;;4973307;28;19927;-76
2022/04/14 17:06:14;;;;;;;;;;;;;;;;;;4975093;28;19926;-77
2022/04/14 17:08:40;;;;;;;;;;;;;;;;;;4976322;28;19926;-76
2022/04/14 17:11:14;;;;;;;;;;;;;;;;;;4976203;28;19981;-77
2022/04/14 17:13:43;;;;;;;;;;;;;;;;;;4975602;28;19930;-76